TAF Text Data
IDs:
Format:
Raw Decoded Include METAR

Data at: 0306 UTC 23 Sep 2018

KLVS 230253Z AUTO 16011KT 10SM CLR 13/05 A3029 RMK AO2 SLP179 T01330050 53009

KLVS 222325Z 2300/2324 18011KT P6SM SCT070
  TEMPO 2300/2302 18011G19KT
  FM230200 20007KT P6SM SKC
  FM231200 VRB05KT P6SM SKC
  FM231800 20011KT P6SM SKC
  FM232000 20012G22KT P6SM FEW100